createdAt,value
2018-06-03T00:01:05.782Z,10.87
2018-06-03T00:03:33.883Z,9.97
2018-06-03T00:06:02.003Z,10.80
2018-06-03T00:08:30.107Z,8.30
2018-06-03T00:10:58.203Z,9.67
2018-06-03T00:13:26.312Z,11.20
2018-06-03T00:15:54.411Z,13.03
2018-06-03T00:18:22.520Z,7.93
2018-06-03T00:21:01.992Z,10.17
2018-06-03T00:23:30.150Z,10.03
2018-06-03T00:25:58.215Z,9.80
2018-06-03T00:28:26.310Z,8.27
2018-06-03T00:30:54.417Z,9.23
2018-06-03T00:33:22.536Z,8.43
2018-06-03T00:36:01.925Z,10.30
2018-06-03T00:38:30.050Z,8.43
2018-06-03T00:40:58.153Z,8.90
2018-06-03T00:43:26.263Z,8.87
2018-06-03T00:45:54.367Z,11.13
2018-06-03T00:48:22.467Z,9.40
2018-06-03T00:50:50.578Z,7.60
2018-06-03T00:53:18.680Z,10.07
2018-06-03T00:55:46.775Z,9.80
2018-06-03T00:58:14.890Z,11.67
2018-06-03T01:00:42.984Z,14.60
2018-06-03T01:03:11.077Z,13.23
2018-06-03T01:05:39.196Z,15.50
2018-06-03T01:08:07.310Z,11.50
2018-06-03T01:10:35.448Z,12.60
2018-06-03T01:13:03.554Z,13.13
2018-06-03T01:15:31.662Z,10.27
2018-06-03T01:17:59.787Z,12.17
2018-06-03T01:20:27.890Z,8.77
2018-06-03T01:22:55.983Z,10.60
2018-06-03T01:25:24.092Z,9.17
2018-06-03T01:27:52.188Z,10.53
2018-06-03T01:30:20.302Z,7.83
2018-06-03T01:32:48.399Z,10.23
2018-06-03T01:35:16.507Z,11.97
2018-06-03T01:37:44.607Z,11.53
2018-06-03T01:40:12.719Z,9.93
2018-06-03T01:42:40.807Z,7.57
2018-06-03T01:45:08.910Z,11.57
2018-06-03T01:47:37.007Z,11.93
2018-06-03T01:50:05.163Z,8.60
2018-06-03T01:52:33.268Z,8.77
2018-06-03T01:55:01.378Z,11.47
2018-06-03T01:57:29.499Z,14.33
2018-06-03T01:59:57.603Z,13.20
2018-06-03T02:02:25.702Z,11.40
2018-06-03T02:04:53.814Z,10.30
2018-06-03T02:07:21.933Z,13.73
2018-06-03T02:09:50.024Z,15.73
2018-06-03T02:12:18.151Z,14.90
2018-06-03T02:14:46.279Z,8.43
2018-06-03T02:17:14.391Z,10.40
2018-06-03T02:19:42.530Z,12.90
2018-06-03T02:22:10.662Z,12.27
2018-06-03T02:24:38.783Z,13.03
2018-06-03T02:27:06.891Z,10.33
2018-06-03T02:29:35.047Z,16.90
2018-06-03T02:32:03.162Z,10.23
2018-06-03T02:34:31.287Z,15.80
2018-06-03T02:36:59.416Z,9.70
2018-06-03T02:39:27.551Z,9.00
2018-06-03T02:41:55.672Z,12.77
2018-06-03T02:44:23.861Z,14.03
2018-06-03T02:46:51.921Z,11.97
2018-06-03T02:49:20.036Z,9.40
2018-06-03T02:51:48.163Z,10.53
2018-06-03T02:54:16.262Z,11.10
2018-06-03T02:56:44.387Z,16.03
2018-06-03T02:59:12.515Z,9.33
2018-06-03T03:01:40.631Z,9.17
2018-06-03T03:04:08.738Z,13.27
2018-06-03T03:06:36.900Z,14.10
2018-06-03T03:09:05.901Z,12.53
2018-06-03T03:11:33.999Z,14.20
2018-06-03T03:14:02.091Z,13.57
2018-06-03T03:16:30.208Z,11.90
2018-06-03T03:18:58.311Z,10.90
2018-06-03T03:21:26.421Z,11.93
2018-06-03T03:23:54.518Z,11.60
2018-06-03T03:26:22.614Z,10.73
2018-06-03T03:28:50.732Z,11.53
2018-06-03T03:31:18.834Z,12.07
2018-06-03T03:33:46.930Z,10.77
2018-06-03T03:36:15.048Z,11.33
2018-06-03T03:38:43.161Z,12.13
2018-06-03T03:41:11.267Z,10.80
2018-06-03T03:43:39.360Z,14.70
2018-06-03T03:46:07.488Z,13.60
2018-06-03T03:48:35.591Z,12.53
2018-06-03T03:51:03.678Z,9.03
2018-06-03T03:53:31.834Z,10.30
2018-06-03T03:55:59.926Z,10.00
2018-06-03T03:58:28.034Z,10.30
2018-06-03T04:00:56.147Z,12.37
2018-06-03T04:03:24.249Z,13.77
2018-06-03T04:05:52.373Z,13.83
2018-06-03T04:08:20.499Z,10.80
2018-06-03T04:10:48.631Z,8.50
2018-06-03T04:13:16.784Z,6.80
2018-06-03T04:15:44.874Z,10.63
2018-06-03T04:18:12.990Z,9.67
2018-06-03T04:20:41.107Z,9.13
2018-06-03T04:23:09.267Z,7.00
2018-06-03T04:25:37.385Z,11.47
2018-06-03T04:28:05.509Z,10.00
2018-06-03T04:30:33.618Z,8.17
2018-06-03T04:33:01.732Z,9.63
2018-06-03T04:35:29.842Z,7.40
2018-06-03T04:37:57.954Z,8.17
2018-06-03T04:40:26.067Z,10.90
2018-06-03T04:42:54.270Z,8.20
2018-06-03T04:45:22.391Z,10.73
2018-06-03T04:47:50.507Z,7.87
2018-06-03T04:50:18.620Z,8.30
2018-06-03T04:52:46.742Z,9.03
2018-06-03T04:55:14.858Z,11.83
2018-06-03T04:57:43.004Z,10.60
2018-06-03T05:00:11.114Z,7.67
2018-06-03T05:02:39.240Z,8.70
2018-06-03T05:05:07.378Z,8.17
2018-06-03T05:07:35.273Z,8.77
2018-06-03T05:10:03.382Z,8.37
2018-06-03T05:12:31.479Z,7.40
2018-06-03T05:14:59.574Z,9.10
2018-06-03T05:17:27.673Z,7.83
2018-06-03T05:19:55.766Z,8.60
2018-06-03T05:22:23.859Z,11.97
2018-06-03T05:24:51.963Z,7.33
2018-06-03T05:27:19.838Z,7.07
2018-06-03T05:29:47.945Z,8.60
2018-06-03T05:32:16.038Z,8.20
2018-06-03T05:34:44.146Z,10.70
2018-06-03T05:37:12.250Z,8.77
2018-06-03T05:39:40.374Z,7.93
2018-06-03T05:42:08.463Z,7.67
2018-06-03T05:44:36.564Z,8.33
2018-06-03T05:47:04.691Z,7.57
2018-06-03T05:49:32.787Z,9.40
2018-06-03T05:52:00.898Z,8.87
2018-06-03T05:54:29.014Z,8.03
2018-06-03T05:56:57.118Z,8.20
2018-06-03T05:59:25.228Z,6.77
2018-06-03T06:01:53.319Z,7.63
2018-06-03T06:04:21.427Z,7.53
2018-06-03T06:06:49.512Z,8.73
2018-06-03T06:09:17.594Z,7.77
2018-06-03T06:11:45.703Z,10.30
2018-06-03T06:14:13.866Z,7.33
2018-06-03T06:16:41.978Z,7.23
2018-06-03T06:19:10.082Z,9.13
2018-06-03T06:21:38.186Z,8.13
2018-06-03T06:24:06.288Z,7.87
2018-06-03T06:26:34.396Z,8.07
2018-06-03T06:29:02.507Z,7.67
2018-06-03T06:31:30.643Z,9.77
2018-06-03T06:33:58.750Z,7.20
2018-06-03T06:36:26.887Z,9.93
2018-06-03T06:38:54.942Z,9.90
2018-06-03T06:41:23.059Z,8.73
2018-06-03T06:43:51.190Z,10.73
2018-06-03T06:46:19.319Z,7.23
2018-06-03T06:48:47.439Z,7.83
2018-06-03T06:51:15.574Z,8.57
2018-06-03T06:53:43.706Z,9.53
2018-06-03T06:56:11.844Z,7.90
2018-06-03T06:58:40.011Z,10.87
2018-06-03T07:01:08.136Z,13.83
2018-06-03T07:03:36.243Z,8.10
2018-06-03T07:06:04.398Z,8.80
2018-06-03T07:08:32.547Z,10.87
2018-06-03T07:11:00.667Z,8.70
2018-06-03T07:13:28.792Z,12.70
2018-06-03T07:15:56.950Z,8.80
2018-06-03T07:18:25.074Z,9.97
2018-06-03T07:20:53.224Z,8.47
2018-06-03T07:23:21.373Z,9.10
2018-06-03T07:25:49.479Z,8.80
2018-06-03T07:28:17.667Z,9.97
2018-06-03T07:30:45.786Z,8.57
2018-06-03T07:33:13.910Z,8.83
2018-06-03T07:35:42.020Z,7.63
2018-06-03T07:38:10.165Z,7.87
2018-06-03T07:40:38.247Z,7.97
2018-06-03T07:43:06.387Z,8.47
2018-06-03T07:45:34.499Z,8.77
2018-06-03T07:48:02.624Z,7.37
2018-06-03T07:50:30.726Z,9.10
2018-06-03T07:52:58.851Z,6.93
2018-06-03T07:55:26.980Z,8.30
2018-06-03T07:57:55.088Z,6.77
2018-06-03T08:00:23.203Z,6.03
2018-06-03T08:02:51.300Z,7.67
2018-06-03T08:05:19.449Z,6.87
2018-06-03T08:07:47.548Z,8.40
2018-06-03T08:10:15.694Z,6.07
2018-06-03T08:12:43.861Z,7.47
2018-06-03T08:15:11.978Z,6.33
2018-06-03T08:17:40.115Z,7.90
2018-06-03T08:20:08.253Z,5.77
2018-06-03T08:22:36.399Z,6.33
2018-06-03T08:25:04.530Z,6.20
2018-06-03T08:27:32.690Z,6.93
2018-06-03T08:30:00.810Z,6.63
2018-06-03T08:32:28.971Z,8.03
2018-06-03T08:34:57.113Z,7.70
2018-06-03T08:37:25.301Z,6.93
2018-06-03T08:39:53.431Z,7.50
2018-06-03T08:42:21.567Z,7.00
2018-06-03T08:44:49.687Z,9.47
2018-06-03T08:47:17.818Z,8.97
2018-06-03T08:49:45.963Z,10.87
2018-06-03T08:52:14.091Z,7.93
2018-06-03T08:54:42.246Z,6.10
2018-06-03T08:57:10.384Z,7.20
2018-06-03T08:59:38.495Z,6.10
2018-06-03T09:02:06.642Z,6.67
2018-06-03T09:04:34.756Z,8.00
2018-06-03T09:07:02.891Z,7.83
2018-06-03T09:09:31.018Z,6.73
2018-06-03T09:11:59.127Z,4.90
2018-06-03T09:14:27.307Z,5.77
2018-06-03T09:16:55.414Z,5.67
2018-06-03T09:19:23.531Z,5.17
2018-06-03T09:21:51.632Z,7.00
2018-06-03T09:24:19.775Z,6.47
2018-06-03T09:26:47.910Z,5.73
2018-06-03T09:29:16.014Z,6.80
2018-06-03T09:31:44.106Z,5.93
2018-06-03T09:34:12.203Z,5.43
2018-06-03T09:36:40.312Z,5.83
2018-06-03T09:39:09.060Z,4.87
2018-06-03T09:41:37.154Z,4.60
2018-06-03T09:44:05.264Z,4.60
2018-06-03T09:46:33.407Z,5.10
2018-06-03T09:49:01.507Z,5.30
2018-06-03T09:51:29.634Z,5.67
2018-06-03T09:53:57.738Z,5.70
2018-06-03T09:56:25.851Z,5.23
2018-06-03T09:58:53.968Z,4.77
2018-06-03T10:01:22.072Z,4.63
2018-06-03T10:03:50.182Z,4.63
2018-06-03T10:06:18.316Z,4.57
2018-06-03T10:08:46.432Z,6.13
2018-06-03T10:11:14.552Z,4.47
2018-06-03T10:13:42.691Z,4.70
2018-06-03T10:16:10.828Z,7.70
2018-06-03T10:18:38.947Z,5.33
2018-06-03T10:21:07.102Z,6.20
2018-06-03T10:23:35.278Z,5.40
2018-06-03T10:26:03.403Z,6.27
2018-06-03T10:28:31.514Z,5.20
2018-06-03T10:30:59.631Z,5.23
2018-06-03T10:33:27.755Z,4.90
2018-06-03T10:35:55.883Z,7.87
2018-06-03T10:38:24.037Z,4.00
2018-06-03T10:40:52.233Z,4.23
2018-06-03T10:43:20.386Z,5.30
2018-06-03T10:45:48.547Z,4.53
2018-06-03T10:48:16.685Z,6.00
2018-06-03T10:50:44.840Z,3.60
2018-06-03T10:53:12.965Z,4.13
2018-06-03T10:55:41.119Z,5.60
2018-06-03T10:58:09.266Z,4.20
2018-06-03T11:00:37.420Z,6.23
2018-06-03T11:03:05.588Z,4.17
2018-06-03T11:05:33.816Z,3.70
2018-06-03T11:08:01.924Z,3.50
2018-06-03T11:10:30.084Z,6.17
2018-06-03T11:12:58.212Z,3.33
2018-06-03T11:15:26.452Z,3.20
2018-06-03T11:17:54.588Z,4.07
2018-06-03T11:20:22.751Z,6.30
2018-06-03T11:22:50.877Z,5.10
2018-06-03T11:25:19.019Z,4.33
2018-06-03T11:27:47.183Z,5.20
2018-06-03T11:30:15.323Z,6.17
2018-06-03T11:32:43.456Z,4.20
2018-06-03T11:35:11.618Z,5.53
2018-06-03T11:37:39.804Z,7.43
2018-06-03T11:40:07.946Z,3.70
2018-06-03T11:42:36.086Z,4.73
2018-06-03T11:45:04.241Z,6.17
2018-06-03T11:47:32.368Z,4.30
2018-06-03T11:50:00.486Z,4.17
2018-06-03T11:52:28.635Z,7.00
2018-06-03T11:54:56.762Z,4.50
2018-06-03T11:57:35.090Z,5.43
2018-06-03T12:00:03.210Z,4.60
2018-06-03T12:02:31.336Z,5.03
2018-06-03T12:04:59.504Z,4.60
2018-06-03T12:07:27.637Z,4.10
2018-06-03T12:09:55.900Z,4.67
2018-06-03T12:12:24.072Z,3.70
2018-06-03T12:14:52.186Z,3.43
2018-06-03T12:17:20.317Z,3.30
2018-06-03T12:19:48.488Z,7.23
2018-06-03T12:22:16.611Z,4.13
2018-06-03T12:24:44.773Z,4.87
2018-06-03T12:27:12.931Z,3.97
2018-06-03T12:29:41.055Z,3.27
2018-06-03T12:32:09.203Z,4.73
2018-06-03T12:34:37.339Z,4.97
2018-06-03T12:37:05.478Z,4.00
2018-06-03T12:39:33.592Z,4.43
2018-06-03T12:42:01.855Z,3.43
2018-06-03T12:44:29.979Z,4.20
2018-06-03T12:46:58.187Z,3.47
2018-06-03T12:49:26.316Z,4.20
2018-06-03T12:51:54.463Z,3.53
2018-06-03T12:54:22.604Z,3.63
2018-06-03T12:56:50.740Z,3.97
2018-06-03T12:59:18.883Z,3.77
2018-06-03T13:01:47.027Z,3.60
2018-06-03T13:04:15.173Z,3.53
2018-06-03T13:06:43.311Z,4.27
2018-06-03T13:09:11.508Z,4.37
2018-06-03T13:11:39.639Z,3.47
2018-06-03T13:14:07.774Z,3.57
2018-06-03T13:16:35.915Z,6.20
2018-06-03T13:19:04.055Z,3.80
2018-06-03T13:21:32.220Z,5.23
2018-06-03T13:24:00.355Z,3.30
2018-06-03T13:26:28.491Z,3.50
2018-06-03T13:28:56.634Z,3.37
2018-06-03T13:31:24.756Z,3.37
2018-06-03T13:33:52.895Z,3.20
2018-06-03T13:36:21.027Z,3.07
2018-06-03T13:38:49.213Z,3.17
2018-06-03T13:41:17.519Z,3.90
2018-06-03T13:43:45.665Z,3.47
2018-06-03T13:46:13.803Z,3.43
2018-06-03T13:48:41.957Z,3.50
2018-06-03T13:51:10.075Z,4.07
2018-06-03T13:53:38.212Z,5.10
2018-06-03T13:56:06.339Z,3.50
2018-06-03T13:58:34.499Z,4.33
2018-06-03T14:01:02.646Z,4.00
2018-06-03T14:03:30.794Z,4.73
2018-06-03T14:05:58.938Z,3.50
2018-06-03T14:08:27.078Z,3.20
2018-06-03T14:10:55.232Z,6.50
2018-06-03T14:13:23.389Z,3.37
2018-06-03T14:15:51.510Z,4.47
2018-06-03T14:18:19.662Z,3.83
2018-06-03T14:20:47.806Z,3.60
2018-06-03T14:23:16.102Z,5.13
2018-06-03T14:25:44.243Z,6.00
2018-06-03T14:28:12.379Z,6.17
2018-06-03T14:30:40.503Z,4.73
2018-06-03T14:33:08.645Z,3.20
2018-06-03T14:35:36.822Z,3.73
2018-06-03T14:38:05.054Z,4.50
2018-06-03T14:40:33.202Z,3.23
2018-06-03T14:43:01.335Z,4.20
2018-06-03T14:45:29.495Z,3.57
2018-06-03T14:47:57.639Z,5.23
2018-06-03T14:50:25.828Z,5.00
2018-06-03T14:52:53.890Z,4.03
2018-06-03T14:55:22.038Z,3.60
2018-06-03T14:57:50.162Z,3.73
2018-06-03T15:00:18.259Z,4.07
2018-06-03T15:02:46.379Z,3.90
2018-06-03T15:05:14.504Z,4.13
2018-06-03T15:07:42.643Z,3.80
2018-06-03T15:10:10.759Z,5.03
2018-06-03T15:12:38.875Z,4.93
2018-06-03T15:15:06.992Z,3.80
2018-06-03T15:17:35.105Z,5.13
2018-06-03T15:20:03.233Z,3.00
2018-06-03T15:22:31.374Z,4.83
2018-06-03T15:24:59.498Z,3.13
2018-06-03T15:27:27.603Z,3.70
2018-06-03T15:29:55.707Z,5.90
2018-06-03T15:32:23.594Z,4.63
2018-06-03T15:34:51.710Z,4.77
2018-06-03T15:37:19.854Z,4.33
2018-06-03T15:39:47.959Z,6.07
2018-06-03T15:42:16.074Z,6.00
2018-06-03T15:44:44.198Z,3.43
2018-06-03T15:47:12.298Z,4.50
2018-06-03T15:49:40.411Z,4.00
2018-06-03T15:52:08.535Z,6.07
2018-06-03T15:54:36.646Z,3.63
2018-06-03T15:57:04.771Z,2.73
2018-06-03T15:59:32.865Z,3.63
2018-06-03T16:02:00.971Z,6.67
2018-06-03T16:04:29.079Z,3.43
2018-06-03T16:06:57.179Z,3.47
2018-06-03T16:09:25.288Z,9.70
2018-06-03T16:11:53.410Z,3.57
2018-06-03T16:14:21.519Z,6.20
2018-06-03T16:19:24.346Z,10.93
2018-06-03T16:21:52.463Z,7.03
2018-06-03T16:24:20.608Z,3.47
2018-06-03T16:26:48.719Z,3.37
2018-06-03T16:29:16.819Z,5.57
2018-06-03T16:31:44.996Z,4.13
2018-06-03T16:34:13.007Z,5.17
2018-06-03T16:36:41.123Z,4.13
2018-06-03T16:39:09.235Z,4.43
2018-06-03T16:41:37.366Z,4.20
2018-06-03T16:44:05.483Z,4.70
2018-06-03T16:46:33.607Z,3.97
2018-06-03T16:49:01.738Z,3.13
2018-06-03T16:51:29.911Z,4.77
2018-06-03T16:53:58.007Z,3.60
2018-06-03T16:56:26.155Z,3.80
2018-06-03T16:58:54.273Z,7.50
2018-06-03T17:01:22.388Z,3.30
2018-06-03T17:03:50.516Z,3.70
2018-06-03T17:06:18.645Z,3.40
2018-06-03T17:08:46.759Z,4.43
2018-06-03T17:11:14.903Z,4.03
2018-06-03T17:13:43.051Z,3.53
2018-06-03T17:16:11.164Z,3.10
2018-06-03T17:18:39.311Z,5.40
2018-06-03T17:21:07.426Z,5.17
2018-06-03T17:23:35.579Z,4.80
2018-06-03T17:26:03.691Z,7.43
2018-06-03T17:28:31.819Z,4.43
2018-06-03T17:30:59.943Z,8.13
2018-06-03T17:33:28.123Z,4.93
2018-06-03T17:35:56.221Z,5.28
2018-06-03T17:38:24.341Z,5.40
2018-06-03T17:40:52.439Z,3.47
2018-06-03T17:43:20.563Z,4.23
2018-06-03T17:45:48.661Z,3.53
2018-06-03T17:48:16.762Z,3.30
2018-06-03T17:50:44.858Z,5.03
2018-06-03T17:53:12.971Z,3.20
2018-06-03T17:55:41.095Z,3.70
2018-06-03T17:58:09.210Z,4.50
2018-06-03T18:00:37.328Z,4.37
2018-06-03T18:03:05.473Z,4.13
2018-06-03T18:05:33.571Z,4.17
2018-06-03T18:08:01.679Z,3.90
2018-06-03T18:10:29.792Z,6.47
2018-06-03T18:12:57.896Z,3.90
2018-06-03T18:15:26.015Z,5.33
2018-06-03T18:17:54.127Z,4.80
2018-06-03T18:20:22.248Z,5.43
2018-06-03T18:22:50.351Z,4.17
2018-06-03T18:25:18.455Z,4.10
2018-06-03T18:27:46.567Z,3.20
2018-06-03T18:30:14.691Z,3.70
2018-06-03T18:32:42.809Z,3.63
2018-06-03T18:35:10.916Z,3.80
2018-06-03T18:37:39.063Z,3.60
2018-06-03T18:40:07.195Z,7.03
2018-06-03T18:42:35.350Z,3.90
2018-06-03T18:45:03.467Z,4.73
2018-06-03T18:47:31.576Z,7.63
2018-06-03T18:49:59.687Z,3.80
2018-06-03T18:52:27.794Z,4.33
2018-06-03T18:54:55.910Z,4.17
2018-06-03T18:57:24.016Z,3.90
2018-06-03T18:59:52.148Z,4.17
2018-06-03T19:02:20.269Z,4.87
2018-06-03T19:04:48.383Z,4.00
2018-06-03T19:07:16.511Z,6.00
2018-06-03T19:09:44.850Z,4.07
2018-06-03T19:12:12.983Z,3.90
2018-06-03T19:14:41.142Z,3.73
2018-06-03T19:17:09.293Z,3.63
2018-06-03T19:19:37.431Z,3.97
2018-06-03T19:22:05.563Z,4.77
2018-06-03T19:24:33.778Z,5.17
2018-06-03T19:27:01.919Z,3.93
2018-06-03T19:29:30.065Z,5.53
2018-06-03T19:31:58.191Z,3.50
2018-06-03T19:34:26.336Z,4.13
2018-06-03T19:36:54.471Z,4.77
2018-06-03T19:39:22.599Z,5.00
2018-06-03T19:41:50.742Z,4.07
2018-06-03T19:44:18.879Z,3.93
2018-06-03T19:46:46.999Z,4.30
2018-06-03T19:49:15.112Z,6.47
2018-06-03T19:51:43.238Z,4.73
2018-06-03T19:54:11.386Z,6.90
2018-06-03T19:56:39.507Z,7.57
2018-06-03T19:59:07.627Z,7.83
2018-06-03T20:01:35.767Z,3.73
2018-06-03T20:04:03.901Z,5.13
2018-06-03T20:06:32.044Z,4.33
2018-06-03T20:09:00.170Z,6.10
2018-06-03T20:11:28.365Z,5.47
2018-06-03T20:13:56.486Z,3.57
2018-06-03T20:16:24.607Z,4.40
2018-06-03T20:18:52.734Z,4.70
2018-06-03T20:21:20.860Z,6.03
2018-06-03T20:23:48.982Z,6.77
2018-06-03T20:26:18.179Z,5.27
2018-06-03T20:28:46.291Z,5.10
2018-06-03T20:31:14.431Z,5.27
2018-06-03T20:33:42.568Z,4.97
2018-06-03T20:36:10.763Z,4.73
2018-06-03T20:38:38.894Z,4.63
2018-06-03T20:41:07.131Z,4.80
2018-06-03T20:43:35.278Z,5.23
2018-06-03T20:46:03.403Z,8.00
2018-06-03T20:48:31.546Z,6.63
2018-06-03T20:50:59.687Z,5.13
2018-06-03T20:53:27.815Z,5.80
2018-06-03T20:55:55.944Z,5.13
2018-06-03T20:58:24.063Z,6.67
2018-06-03T21:00:52.202Z,5.60
2018-06-03T21:03:20.326Z,6.10
2018-06-03T21:05:48.462Z,4.80
2018-06-03T21:08:16.590Z,7.07
2018-06-03T21:10:44.474Z,5.70
2018-06-03T21:13:12.604Z,5.33
2018-06-03T21:15:40.730Z,6.53
2018-06-03T21:18:08.831Z,5.63
2018-06-03T21:20:36.926Z,5.83
2018-06-03T21:23:05.159Z,6.87
2018-06-03T21:25:33.260Z,6.13
2018-06-03T21:28:01.379Z,4.63
2018-06-03T21:30:29.506Z,5.00
2018-06-03T21:32:58.415Z,6.27
2018-06-03T21:35:26.518Z,4.97
2018-06-03T21:37:54.647Z,4.93
2018-06-03T21:40:22.782Z,5.03
2018-06-03T21:42:50.899Z,6.97
2018-06-03T21:45:18.998Z,6.67
2018-06-03T21:47:47.127Z,5.63
2018-06-03T21:50:15.221Z,8.20
2018-06-03T21:52:43.336Z,5.93
2018-06-03T21:55:11.451Z,5.53
2018-06-03T21:57:39.563Z,5.90
2018-06-03T22:00:07.697Z,5.87
2018-06-03T22:02:35.787Z,5.33
2018-06-03T22:05:03.908Z,6.60
2018-06-03T22:07:32.018Z,6.00
2018-06-03T22:10:00.126Z,7.50
2018-06-03T22:12:28.242Z,6.00
2018-06-03T22:14:56.363Z,7.10
2018-06-03T22:17:24.479Z,7.07
2018-06-03T22:19:52.584Z,5.13
2018-06-03T22:22:20.693Z,7.30
2018-06-03T22:24:48.815Z,5.87
2018-06-03T22:27:16.971Z,5.73
2018-06-03T22:29:45.018Z,5.33
2018-06-03T22:32:13.136Z,7.93
2018-06-03T22:34:41.251Z,10.23
2018-06-03T22:37:09.384Z,5.60
2018-06-03T22:39:37.482Z,6.97
2018-06-03T22:44:40.178Z,5.93
2018-06-03T22:47:08.299Z,7.03
2018-06-03T22:49:36.411Z,6.20
2018-06-03T22:52:04.521Z,6.40
2018-06-03T22:54:32.654Z,7.27
2018-06-03T22:57:43.631Z,5.87
2018-06-03T23:00:14.544Z,6.13
2018-06-03T23:02:46.896Z,6.60
2018-06-03T23:05:15.031Z,9.97
2018-06-03T23:07:43.145Z,7.73
2018-06-03T23:10:11.264Z,8.27
2018-06-03T23:12:39.419Z,6.00
2018-06-03T23:15:07.576Z,7.53
2018-06-03T23:17:35.699Z,6.60
2018-06-03T23:20:03.590Z,6.53
2018-06-03T23:22:31.756Z,6.40
2018-06-03T23:24:59.888Z,7.43
2018-06-03T23:27:28.068Z,6.40
2018-06-03T23:29:56.208Z,6.70
2018-06-03T23:32:24.338Z,6.40
2018-06-03T23:34:52.455Z,8.00
2018-06-03T23:37:20.583Z,6.70
2018-06-03T23:39:48.706Z,7.00
2018-06-03T23:42:17.178Z,8.73
2018-06-03T23:44:45.323Z,6.17
2018-06-03T23:47:13.476Z,6.83
2018-06-03T23:49:41.614Z,7.60
2018-06-03T23:52:09.747Z,6.90
2018-06-03T23:54:37.879Z,6.60
2018-06-03T23:57:06.019Z,8.00
2018-06-03T23:59:34.147Z,6.77
